createdAt,value
2023-01-07T00:02:35.491Z,100661.34
2023-01-07T00:05:36.977Z,100658.75
2023-01-07T00:08:41.097Z,100665.03
2023-01-07T00:11:43.064Z,100665.22
2023-01-07T00:14:44.524Z,100661.63
2023-01-07T00:17:46.084Z,100661.63
2023-01-07T00:20:47.539Z,100670.78
2023-01-07T00:23:49.636Z,100662.66
2023-01-07T00:26:51.152Z,100658.25
2023-01-07T00:29:52.763Z,100658.25
2023-01-07T00:33:04.550Z,100659.22
2023-01-07T00:36:08.559Z,100661.78
2023-01-07T00:39:19.331Z,100661.78
2023-01-07T00:42:39.958Z,100669.22
2023-01-07T00:45:41.539Z,100666.53
2023-01-07T00:48:44.797Z,100665.81
2023-01-07T00:51:46.435Z,100677.53
2023-01-07T00:54:47.948Z,100667.69
2023-01-07T00:57:49.602Z,100677.53
2023-01-07T01:00:56.199Z,100671.25
2023-01-07T01:03:58.862Z,100663.44
2023-01-07T01:07:00.752Z,100659.69
2023-01-07T01:10:05.760Z,100658.00
2023-01-07T01:13:07.272Z,100652.72
2023-01-07T01:16:11.630Z,100651.03
2023-01-07T01:19:13.162Z,100650.31
2023-01-07T01:22:14.763Z,100637.78
2023-01-07T01:25:16.504Z,100646.91
2023-01-07T01:28:17.975Z,100640.81
2023-01-07T01:31:19.519Z,100642.63
2023-01-07T01:34:24.230Z,100638.22
2023-01-07T01:37:27.991Z,100630.94
2023-01-07T01:40:31.221Z,100630.94
2023-01-07T01:43:35.907Z,100637.22
2023-01-07T01:46:44.521Z,100636.38
2023-01-07T01:49:52.713Z,100641.97
2023-01-07T01:53:04.939Z,100639.25
2023-01-07T01:56:12.570Z,100635.66
2023-01-07T01:59:17.264Z,100646.69
2023-01-07T02:02:25.891Z,100637.69
2023-01-07T02:05:34.381Z,100636.81
2023-01-07T02:08:35.935Z,100644.28
2023-01-07T02:11:55.793Z,100643.28
2023-01-07T02:15:10.117Z,100647.16
2023-01-07T02:18:38.436Z,100653.41
2023-01-07T02:22:33.549Z,100653.41
2023-01-07T02:26:06.054Z,100643.59
2023-01-07T02:29:40.560Z,100650.88
2023-01-07T02:32:58.429Z,100643.72
2023-01-07T02:36:12.126Z,100635.59
2023-01-07T02:39:54.803Z,100632.19
2023-01-07T02:43:26.387Z,100632.19
2023-01-07T02:46:36.732Z,100628.78
2023-01-07T02:49:38.224Z,100622.66
2023-01-07T02:52:40.110Z,100611.94
2023-01-07T02:56:01.316Z,100611.94
2023-01-07T02:59:27.830Z,100611.94
2023-01-07T03:02:41.447Z,100601.41
2023-01-07T03:05:55.224Z,100599.56
2023-01-07T03:09:22.797Z,100593.28
2023-01-07T03:12:30.001Z,100592.72
2023-01-07T03:15:46.515Z,100583.59
2023-01-07T03:18:55.877Z,100574.72
2023-01-07T03:21:59.838Z,100580.16
2023-01-07T03:25:03.576Z,100575.88
2023-01-07T03:28:08.641Z,100579.44
2023-01-07T03:31:15.000Z,100581.31
2023-01-07T03:34:21.339Z,100576.06
2023-01-07T03:37:27.619Z,100568.91
2023-01-07T03:40:29.884Z,100572.66
2023-01-07T03:43:31.602Z,100561.94
2023-01-07T03:46:35.424Z,100569.09
2023-01-07T03:49:38.565Z,100568.22
2023-01-07T03:52:41.103Z,100571.09
2023-01-07T03:55:42.593Z,100567.53
2023-01-07T03:58:44.145Z,100563.09
2023-01-07T04:01:45.826Z,100553.28
2023-01-07T04:04:47.565Z,100552.44
2023-01-07T04:07:49.616Z,100551.56
2023-01-07T04:10:51.685Z,100538.16
2023-01-07T04:13:53.213Z,100536.31
2023-01-07T04:16:55.671Z,100530.03
2023-01-07T04:19:57.326Z,100520.16
2023-01-07T04:22:59.553Z,100523.75
2023-01-07T04:26:01.054Z,100520.34
2023-01-07T04:29:02.747Z,100522.22
2023-01-07T04:32:05.037Z,100508.78
2023-01-07T04:35:06.941Z,100500.66
2023-01-07T04:38:08.587Z,100501.69
2023-01-07T04:41:10.246Z,100511.66
2023-01-07T04:44:11.949Z,100505.38
2023-01-07T04:47:13.419Z,100508.09
2023-01-07T04:50:15.369Z,100506.41
2023-01-07T04:53:17.142Z,100496.53
2023-01-07T04:56:19.923Z,100494.84
2023-01-07T04:59:23.411Z,100497.56
2023-01-07T05:02:24.969Z,100500.28
2023-01-07T05:05:27.929Z,100498.59
2023-01-07T05:08:30.432Z,100497.72
2023-01-07T05:11:32.360Z,100494.16
2023-01-07T05:14:34.445Z,100491.44
2023-01-07T05:17:36.026Z,100497.88
2023-01-07T05:20:40.343Z,100491.63
2023-01-07T05:23:42.506Z,100491.75
2023-01-07T05:26:44.089Z,100491.75
2023-01-07T05:29:46.111Z,100492.94
2023-01-07T05:32:47.619Z,100495.50
2023-01-07T05:35:49.354Z,100491.06
2023-01-07T05:38:52.525Z,100498.22
2023-01-07T05:41:54.178Z,100488.34
2023-01-07T05:44:58.015Z,100487.50
2023-01-07T05:47:59.624Z,100484.78
2023-01-07T05:51:01.178Z,100486.66
2023-01-07T05:54:03.221Z,100484.94
2023-01-07T05:57:04.725Z,100489.50
2023-01-07T06:00:07.175Z,100481.38
2023-01-07T06:03:13.442Z,100485.25
2023-01-07T06:06:14.896Z,100491.53
2023-01-07T06:09:16.389Z,100491.53
2023-01-07T06:12:17.878Z,100489.84
2023-01-07T06:15:19.382Z,100492.53
2023-01-07T06:18:20.877Z,100489.84
2023-01-07T06:21:22.403Z,100491.69
2023-01-07T06:24:23.908Z,100492.69
2023-01-07T06:27:25.421Z,100491.00
2023-01-07T06:30:26.997Z,100497.25
2023-01-07T06:33:28.444Z,100488.28
2023-01-07T06:36:30.144Z,100497.44
2023-01-07T06:39:31.671Z,100488.44
2023-01-07T06:42:33.405Z,100482.00
2023-01-07T06:45:35.113Z,100479.44
2023-01-07T06:48:36.710Z,100483.19
2023-01-07T06:51:38.156Z,100484.88
2023-01-07T06:54:39.592Z,100478.75
2023-01-07T06:57:41.063Z,100477.91
2023-01-07T07:00:42.753Z,100464.34
2023-01-07T07:03:44.198Z,100472.47
2023-01-07T07:06:45.656Z,100467.91
2023-01-07T07:09:47.762Z,100454.34
2023-01-07T07:12:49.251Z,100456.22
2023-01-07T07:15:50.772Z,100460.94
2023-01-07T07:18:53.411Z,100465.50
2023-01-07T07:21:54.966Z,100461.09
2023-01-07T07:24:56.425Z,100465.69
2023-01-07T07:27:57.886Z,100461.25
2023-01-07T07:30:59.383Z,100459.56
2023-01-07T07:34:00.895Z,100472.25
2023-01-07T07:37:02.725Z,100465.81
2023-01-07T07:40:08.985Z,100470.41
2023-01-07T07:43:12.958Z,100469.56
2023-01-07T07:46:14.923Z,100471.38
2023-01-07T07:49:16.391Z,100461.44
2023-01-07T07:52:18.504Z,100466.66
2023-01-07T07:55:26.157Z,100462.81
2023-01-07T07:58:28.114Z,100452.34
2023-01-07T08:01:29.756Z,100455.28
2023-01-07T08:04:34.104Z,100452.97
2023-01-07T08:07:37.626Z,100444.03
2023-01-07T08:10:40.453Z,100436.28
2023-01-07T08:13:41.920Z,100439.38
2023-01-07T08:16:43.381Z,100451.44
2023-01-07T08:19:44.877Z,100444.69
2023-01-07T08:22:46.338Z,100440.81
2023-01-07T08:25:47.968Z,100443.25
2023-01-07T08:28:49.482Z,100446.66
2023-01-07T08:31:51.814Z,100450.53
2023-01-07T08:34:53.319Z,100449.94
2023-01-07T08:38:03.278Z,100455.56
2023-01-07T08:41:04.893Z,100457.72
2023-01-07T08:44:06.421Z,100457.88
2023-01-07T08:47:07.956Z,100459.91
2023-01-07T08:50:09.685Z,100459.91
2023-01-07T08:53:11.173Z,100456.34
2023-01-07T08:56:12.630Z,100452.75
2023-01-07T08:59:14.136Z,100451.91
2023-01-07T09:02:18.368Z,100450.91
2023-01-07T09:05:19.996Z,100447.34
2023-01-07T09:08:21.491Z,100447.50
2023-01-07T09:11:23.484Z,100447.34
2023-01-07T09:14:25.117Z,100449.19
2023-01-07T09:17:26.611Z,100446.66
2023-01-07T09:20:28.124Z,100449.19
2023-01-07T09:23:29.689Z,100439.19
2023-01-07T09:26:31.237Z,100438.19
2023-01-07T09:29:32.754Z,100437.19
2023-01-07T09:32:34.320Z,100442.59
2023-01-07T09:35:35.820Z,100433.47
2023-01-07T09:38:37.394Z,100439.41
2023-01-07T09:41:57.465Z,100436.78
2023-01-07T09:45:21.248Z,100442.06
2023-01-07T09:48:44.421Z,100436.66
2023-01-07T09:51:56.308Z,100438.34
2023-01-07T09:55:07.625Z,100439.19
2023-01-07T09:58:15.731Z,100434.63
2023-01-07T10:01:26.640Z,100435.47
2023-01-07T10:04:38.195Z,100437.16
2023-01-07T10:08:30.438Z,100433.47
2023-01-07T10:11:30.881Z,100430.03
2023-01-07T10:14:35.403Z,100417.31
2023-01-07T10:17:55.510Z,100414.63
2023-01-07T10:21:12.447Z,100406.63
2023-01-07T10:24:21.866Z,100406.63
2023-01-07T10:27:32.204Z,100403.91
2023-01-07T10:30:41.702Z,100403.06
2023-01-07T10:33:45.803Z,100404.94
2023-01-07T10:37:01.001Z,100397.66
2023-01-07T10:40:37.664Z,100396.81
2023-01-07T10:43:57.262Z,100387.81
2023-01-07T10:47:04.715Z,100377.97
2023-01-07T10:50:19.874Z,100377.13
2023-01-07T10:53:42.518Z,100372.38
2023-01-07T10:57:03.720Z,100371.06
2023-01-07T11:00:10.700Z,100362.75
2023-01-07T11:03:23.272Z,100353.44
2023-01-07T11:06:52.299Z,100350.56
2023-01-07T11:09:56.073Z,100347.66
2023-01-07T11:13:02.563Z,100342.94
2023-01-07T11:16:08.903Z,100331.09
2023-01-07T11:19:12.120Z,100331.09
2023-01-07T11:22:28.376Z,100322.78
2023-01-07T11:25:30.809Z,100315.66
2023-01-07T11:28:34.229Z,100314.63
2023-01-07T11:31:55.956Z,100312.75
2023-01-07T11:35:02.331Z,100307.34
2023-01-07T11:38:31.152Z,100303.63
2023-01-07T11:41:32.777Z,100297.34
2023-01-07T11:44:34.281Z,100289.03
2023-01-07T11:47:38.224Z,100288.69
2023-01-07T11:50:42.954Z,100285.00
2023-01-07T11:53:50.600Z,100271.56
2023-01-07T11:56:54.181Z,100268.72
2023-01-07T12:00:28.594Z,100265.66
2023-01-07T12:03:30.497Z,100251.25
2023-01-07T12:06:38.477Z,100251.94
2023-01-07T12:09:42.303Z,100249.22
2023-01-07T12:12:44.452Z,100248.34
2023-01-07T12:15:51.892Z,100244.63
2023-01-07T12:19:10.037Z,100229.19
2023-01-07T12:22:26.806Z,100228.16
2023-01-07T12:25:49.569Z,100220.91
2023-01-07T12:29:12.373Z,100213.59
2023-01-07T12:32:22.914Z,100211.72
2023-01-07T12:35:27.662Z,100208.19
2023-01-07T12:38:50.703Z,100205.13
2023-01-07T12:42:03.567Z,100200.53
2023-01-07T12:45:13.852Z,100195.78
2023-01-07T12:48:41.395Z,100183.75
2023-01-07T12:52:02.870Z,100180.19
2023-01-07T12:55:21.835Z,100175.59
2023-01-07T12:58:32.753Z,100173.94
2023-01-07T13:01:39.003Z,100170.53
2023-01-07T13:05:02.208Z,100165.09
2023-01-07T13:08:33.484Z,100157.94
2023-01-07T13:12:00.345Z,100160.00
2023-01-07T13:15:05.618Z,100159.13
2023-01-07T13:18:10.132Z,100155.59
2023-01-07T13:21:14.082Z,100145.75
2023-01-07T13:24:54.647Z,100146.59
2023-01-07T13:28:01.027Z,100138.47
2023-01-07T13:31:08.213Z,100124.88
2023-01-07T13:34:38.178Z,100124.72
2023-01-07T13:38:07.745Z,100119.13
2023-01-07T13:41:27.608Z,100109.28
2023-01-07T13:44:58.437Z,100100.97
2023-01-07T13:48:03.186Z,100094.53
2023-01-07T13:51:07.365Z,100094.34
2023-01-07T13:54:11.686Z,100089.78
2023-01-07T13:57:31.582Z,100084.16
2023-01-07T14:01:14.230Z,100079.59
2023-01-07T14:04:46.517Z,100072.31
2023-01-07T14:07:51.759Z,100069.59
2023-01-07T14:10:54.192Z,100062.09
2023-01-07T14:14:10.082Z,100057.34
2023-01-07T14:17:41.314Z,100045.50
2023-01-07T14:20:48.644Z,100039.03
2023-01-07T14:23:59.061Z,100037.34
2023-01-07T14:27:44.836Z,100037.84
2023-01-07T14:30:53.176Z,100044.31
2023-01-07T14:34:04.789Z,100059.41
2023-01-07T14:37:16.244Z,100061.09
2023-01-07T14:40:26.784Z,100064.66
2023-01-07T14:43:40.721Z,100058.22
2023-01-07T14:46:45.415Z,100047.50
2023-01-07T14:50:04.534Z,100043.59
2023-01-07T14:53:12.049Z,100048.88
2023-01-07T14:56:19.525Z,100035.31
2023-01-07T14:59:39.264Z,100044.97
2023-01-07T15:02:59.079Z,100049.53
2023-01-07T15:06:31.313Z,100037.66
2023-01-07T15:10:06.650Z,100042.06
2023-01-07T15:13:33.662Z,100029.31
2023-01-07T15:16:36.108Z,100014.91
2023-01-07T15:19:40.030Z,100017.28
2023-01-07T15:22:57.753Z,100007.44
2023-01-07T15:26:31.653Z,100010.66
2023-01-07T15:29:54.864Z,100012.38
2023-01-07T15:33:23.621Z,99997.94
2023-01-07T15:36:25.833Z,99998.78
2023-01-07T15:39:31.525Z,99996.75
2023-01-07T15:42:33.112Z,99984.19
2023-01-07T15:45:34.642Z,99975.03
2023-01-07T15:48:36.194Z,99977.53
2023-01-07T15:51:47.905Z,99956.50
2023-01-07T15:54:49.425Z,99950.91
2023-01-07T15:57:54.753Z,99948.84
2023-01-07T16:00:59.988Z,99944.09
2023-01-07T16:04:03.627Z,99935.56
2023-01-07T16:07:05.216Z,99935.56
2023-01-07T16:10:07.249Z,99928.94
2023-01-07T16:13:20.590Z,99935.88
2023-01-07T16:16:22.877Z,99936.09
2023-01-07T16:19:24.398Z,99929.81
2023-01-07T16:22:27.706Z,99927.09
2023-01-07T16:25:35.557Z,99917.06
2023-01-07T16:28:41.481Z,99919.78
2023-01-07T16:31:43.410Z,99907.22
2023-01-07T16:34:54.304Z,99900.59
2023-01-07T16:37:55.945Z,99897.03
2023-01-07T16:40:57.614Z,99882.44
2023-01-07T16:43:59.960Z,99884.97
2023-01-07T16:47:13.929Z,99888.50
2023-01-07T16:50:15.655Z,99884.13
2023-01-07T16:53:22.819Z,99879.53
2023-01-07T16:56:24.867Z,99893.31
2023-01-07T16:59:30.333Z,99891.59
2023-01-07T17:02:42.024Z,99893.47
2023-01-07T17:05:57.397Z,99888.19
2023-01-07T17:08:58.978Z,99884.66
2023-01-07T17:12:00.521Z,99868.34
2023-01-07T17:15:02.289Z,99864.63
2023-01-07T17:18:16.029Z,99858.84
2023-01-07T17:21:39.799Z,99858.47
2023-01-07T17:24:41.224Z,99850.16
2023-01-07T17:27:54.049Z,99846.03
2023-01-07T17:30:55.764Z,99837.75
2023-01-07T17:33:57.357Z,99836.72
2023-01-07T17:36:58.864Z,99840.25
2023-01-07T17:40:00.506Z,99839.25
2023-01-07T17:43:20.366Z,99831.94
2023-01-07T17:46:22.704Z,99823.78
2023-01-07T17:49:25.070Z,99814.81
2023-01-07T17:52:26.996Z,99816.50
2023-01-07T17:55:30.788Z,99822.75
2023-01-07T17:58:34.409Z,99830.06
2023-01-07T18:01:36.130Z,99832.13
2023-01-07T18:04:37.711Z,99824.16
2023-01-07T18:07:39.278Z,99812.25
2023-01-07T18:11:00.745Z,99815.81
2023-01-07T18:14:02.630Z,99807.66
2023-01-07T18:17:04.148Z,99807.03
2023-01-07T18:20:06.018Z,99814.13
2023-01-07T18:23:10.150Z,99804.78
2023-01-07T18:26:12.842Z,99808.53
2023-01-07T18:29:14.700Z,99816.69
2023-01-07T18:32:16.248Z,99801.22
2023-01-07T18:35:19.043Z,99802.22
2023-01-07T18:38:20.629Z,99798.69
2023-01-07T18:41:22.373Z,99803.94
2023-01-07T18:44:23.935Z,99803.75
2023-01-07T18:47:25.690Z,99788.47
2023-01-07T18:50:27.462Z,99794.75
2023-01-07T18:53:28.944Z,99787.44
2023-01-07T18:56:30.578Z,99783.72
2023-01-07T18:59:32.064Z,99781.84
2023-01-07T19:02:35.036Z,99801.69
2023-01-07T19:05:39.074Z,99804.25
2023-01-07T19:08:40.854Z,99799.81
2023-01-07T19:11:42.516Z,99799.81
2023-01-07T19:14:44.010Z,99795.25
2023-01-07T19:17:45.500Z,99790.66
2023-01-07T19:20:46.957Z,99777.06
2023-01-07T19:23:48.981Z,99783.19
2023-01-07T19:26:51.394Z,99786.72
2023-01-07T19:29:52.949Z,99789.44
2023-01-07T19:32:54.443Z,99784.00
2023-01-07T19:36:08.219Z,99782.81
2023-01-07T19:39:12.930Z,99789.06
2023-01-07T19:42:14.682Z,99786.53
2023-01-07T19:45:16.337Z,99785.31
2023-01-07T19:48:19.485Z,99774.44
2023-01-07T19:51:21.085Z,99770.72
2023-01-07T19:54:22.672Z,99754.44
2023-01-07T19:57:24.202Z,99757.13
2023-01-07T20:00:25.743Z,99749.81
2023-01-07T20:03:29.698Z,99738.97
2023-01-07T20:06:35.392Z,99729.78
2023-01-07T20:09:36.882Z,99718.91
2023-01-07T20:12:39.132Z,99716.19
2023-01-07T20:15:40.646Z,99711.78
2023-01-07T20:18:52.820Z,99697.81
2023-01-07T20:21:54.284Z,99694.44
2023-01-07T20:24:55.763Z,99698.03
2023-01-07T20:27:57.276Z,99696.16
2023-01-07T20:30:59.082Z,99682.34
2023-01-07T20:34:00.970Z,99683.22
2023-01-07T20:37:02.621Z,99675.91
2023-01-07T20:40:04.751Z,99661.28
2023-01-07T20:43:06.859Z,99670.28
2023-01-07T20:46:08.998Z,99670.09
2023-01-07T20:49:11.695Z,99665.72
2023-01-07T20:52:13.196Z,99663.00
2023-01-07T20:55:14.821Z,99663.84
2023-01-07T20:58:16.300Z,99653.81
2023-01-07T21:01:20.458Z,99648.19
2023-01-07T21:04:22.084Z,99651.91
2023-01-07T21:07:23.619Z,99655.47
2023-01-07T21:10:25.981Z,99660.72
2023-01-07T21:13:27.617Z,99666.16
2023-01-07T21:16:29.272Z,99668.06
2023-01-07T21:19:30.929Z,99668.06
2023-01-07T21:22:32.508Z,99655.31
2023-01-07T21:25:34.059Z,99655.31
2023-01-07T21:28:36.460Z,99666.84
2023-01-07T21:31:38.098Z,99653.41
2023-01-07T21:34:39.716Z,99652.41
2023-01-07T21:37:41.229Z,99644.25
2023-01-07T21:40:42.690Z,99633.38
2023-01-07T21:43:44.713Z,99630.47
2023-01-07T21:46:46.237Z,99627.75
2023-01-07T21:49:49.577Z,99613.31
2023-01-07T21:52:51.089Z,99607.03
2023-01-07T21:55:52.591Z,99602.44
2023-01-07T21:58:54.112Z,99604.13
2023-01-07T22:01:55.950Z,99604.13
2023-01-07T22:04:57.581Z,99601.41
2023-01-07T22:07:59.115Z,99593.47
2023-01-07T22:11:00.734Z,99591.59
2023-01-07T22:14:02.481Z,99593.47
2023-01-07T22:17:04.223Z,99608.94
2023-01-07T22:20:06.342Z,99583.59
2023-01-07T22:23:11.147Z,99581.94
2023-01-07T22:26:15.117Z,99583.59
2023-01-07T22:29:17.401Z,99595.50
2023-01-07T22:32:18.924Z,99600.13
2023-01-07T22:35:20.609Z,99615.38
2023-01-07T22:38:24.754Z,99628.13
2023-01-07T22:41:28.407Z,99630.84
2023-01-07T22:44:36.613Z,99619.97
2023-01-07T22:47:42.149Z,99621.00
2023-01-07T22:50:43.694Z,99618.47
2023-01-07T22:53:46.398Z,99607.78
2023-01-07T22:56:48.202Z,99612.38
2023-01-07T22:59:49.733Z,99610.50
2023-01-07T23:02:51.305Z,99599.63
2023-01-07T23:05:52.995Z,99575.38
2023-01-07T23:08:54.588Z,99576.41
2023-01-07T23:11:59.478Z,99567.13
2023-01-07T23:15:00.996Z,99542.22
2023-01-07T23:18:05.173Z,99548.88
2023-01-07T23:21:06.772Z,99550.75
2023-01-07T23:24:08.531Z,99543.81
2023-01-07T23:27:10.041Z,99537.72
2023-01-07T23:30:12.004Z,99524.16
2023-01-07T23:33:13.516Z,99541.47
2023-01-07T23:36:15.039Z,99539.78
2023-01-07T23:39:16.519Z,99538.13
2023-01-07T23:42:18.113Z,99523.84
2023-01-07T23:45:19.585Z,99519.41
2023-01-07T23:48:21.133Z,99520.47
2023-01-07T23:51:22.603Z,99512.50
2023-01-07T23:54:24.226Z,99523.34
2023-01-07T23:57:25.861Z,99514.56
